createdAt,value
2017-07-19T00:00:12.517Z,22.10
2017-07-19T00:02:40.779Z,22.20
2017-07-19T00:05:08.307Z,22.10
2017-07-19T00:07:36.566Z,22.20
2017-07-19T00:10:04.885Z,22.20
2017-07-19T00:12:33.169Z,22.20
2017-07-19T00:15:01.418Z,22.20
2017-07-19T00:17:29.726Z,22.10
2017-07-19T00:19:57.988Z,22.00
2017-07-19T00:22:26.243Z,22.00
2017-07-19T00:24:53.766Z,22.10
2017-07-19T00:27:22.024Z,22.10
2017-07-19T00:29:50.344Z,22.10
2017-07-19T00:32:18.604Z,22.10
2017-07-19T00:34:46.101Z,22.10
2017-07-19T00:37:14.393Z,22.00
2017-07-19T00:39:42.671Z,21.90
2017-07-19T00:42:10.963Z,21.90
2017-07-19T00:44:39.229Z,21.90
2017-07-19T00:47:07.516Z,21.80
2017-07-19T00:49:35.763Z,21.80
2017-07-19T00:52:04.052Z,21.70
2017-07-19T00:54:32.323Z,21.80
2017-07-19T00:57:00.584Z,21.70
2017-07-19T00:59:28.887Z,21.70
2017-07-19T01:01:57.148Z,21.60
2017-07-19T01:04:25.412Z,21.60
2017-07-19T01:06:53.703Z,21.60
2017-07-19T01:09:21.961Z,21.60
2017-07-19T01:11:50.220Z,21.50
2017-07-19T01:14:18.528Z,21.50
2017-07-19T01:16:46.805Z,21.50
2017-07-19T01:19:15.100Z,21.50
2017-07-19T01:21:43.362Z,21.40
2017-07-19T01:24:10.896Z,21.40
2017-07-19T01:26:38.382Z,21.30
2017-07-19T01:29:06.627Z,21.30
2017-07-19T01:31:34.921Z,21.30
2017-07-19T01:34:03.192Z,21.20
2017-07-19T01:36:31.449Z,21.20
2017-07-19T01:38:59.751Z,21.20
2017-07-19T01:41:28.013Z,21.20
2017-07-19T01:43:56.295Z,21.20
2017-07-19T01:46:24.552Z,21.20
2017-07-19T01:48:52.826Z,21.30
2017-07-19T01:51:22.091Z,21.30
2017-07-19T01:53:50.391Z,21.20
2017-07-19T01:56:18.653Z,21.20
2017-07-19T01:58:46.943Z,21.30
2017-07-19T02:01:15.235Z,21.20
2017-07-19T02:03:43.503Z,21.20
2017-07-19T02:06:11.027Z,21.20
2017-07-19T02:08:39.282Z,21.10
2017-07-19T02:11:07.552Z,21.20
2017-07-19T02:13:35.852Z,21.10
2017-07-19T02:16:04.105Z,21.10
2017-07-19T02:18:32.365Z,21.00
2017-07-19T02:21:00.646Z,21.10
2017-07-19T02:23:28.912Z,21.00
2017-07-19T02:25:57.204Z,21.00
2017-07-19T02:28:25.501Z,21.00
2017-07-19T02:30:53.811Z,21.00
2017-07-19T02:33:22.074Z,21.00
2017-07-19T02:35:50.381Z,21.00
2017-07-19T02:38:18.644Z,20.90
2017-07-19T02:40:46.920Z,20.90
2017-07-19T02:43:15.201Z,20.90
2017-07-19T02:45:43.473Z,20.80
2017-07-19T02:48:11.779Z,20.80
2017-07-19T02:50:39.280Z,20.80
2017-07-19T02:53:07.543Z,20.80
2017-07-19T02:55:35.837Z,20.80
2017-07-19T02:58:04.104Z,20.90
2017-07-19T03:00:32.398Z,20.80
2017-07-19T03:03:00.660Z,20.80
2017-07-19T03:05:28.958Z,20.80
2017-07-19T03:07:56.447Z,20.80
2017-07-19T03:10:23.968Z,20.80
2017-07-19T03:12:52.253Z,20.80
2017-07-19T03:15:20.523Z,20.80
2017-07-19T03:17:48.807Z,20.80
2017-07-19T03:20:17.100Z,20.70
2017-07-19T03:22:50.006Z,20.70
2017-07-19T03:25:18.275Z,20.70
2017-07-19T03:27:46.585Z,20.70
2017-07-19T03:30:14.863Z,20.60
2017-07-19T03:32:43.151Z,20.50
2017-07-19T03:35:11.451Z,20.40
2017-07-19T03:37:39.714Z,20.30
2017-07-19T03:40:07.970Z,20.40
2017-07-19T03:42:36.295Z,20.30
2017-07-19T03:45:04.550Z,20.40
2017-07-19T03:47:32.044Z,20.40
2017-07-19T03:50:00.333Z,20.50
2017-07-19T03:52:28.588Z,20.50
2017-07-19T03:54:56.884Z,20.50
2017-07-19T03:57:24.379Z,20.40
2017-07-19T03:59:52.665Z,20.40
2017-07-19T04:02:20.974Z,20.40
2017-07-19T04:04:49.231Z,20.40
2017-07-19T04:07:17.502Z,20.50
2017-07-19T04:09:45.790Z,20.50
2017-07-19T04:12:14.069Z,20.50
2017-07-19T04:14:42.371Z,20.50
2017-07-19T04:17:10.622Z,20.50
2017-07-19T04:19:38.914Z,20.50
2017-07-19T04:22:07.172Z,20.50
2017-07-19T04:24:35.437Z,20.60
2017-07-19T04:27:03.722Z,20.60
2017-07-19T04:29:31.991Z,20.60
2017-07-19T04:32:00.287Z,20.50
2017-07-19T04:34:28.545Z,20.60
2017-07-19T04:36:56.802Z,20.50
2017-07-19T04:39:25.088Z,20.50
2017-07-19T04:41:53.361Z,20.50
2017-07-19T04:44:21.676Z,20.50
2017-07-19T04:46:49.939Z,20.60
2017-07-19T04:49:18.210Z,20.60
2017-07-19T04:51:46.492Z,20.70
2017-07-19T04:54:14.750Z,20.70
2017-07-19T04:56:42.267Z,20.60
2017-07-19T04:59:10.524Z,20.70
2017-07-19T05:01:38.816Z,20.80
2017-07-19T05:04:07.089Z,20.80
2017-07-19T05:06:34.602Z,20.80
2017-07-19T05:09:02.895Z,20.90
2017-07-19T05:11:31.183Z,20.90
2017-07-19T05:13:59.439Z,21.00
2017-07-19T05:16:27.733Z,21.00
2017-07-19T05:18:55.997Z,21.10
2017-07-19T05:21:24.258Z,21.00
2017-07-19T05:23:52.564Z,20.90
2017-07-19T05:26:20.065Z,20.90
2017-07-19T05:28:51.067Z,20.90
2017-07-19T05:31:19.356Z,20.90
2017-07-19T05:33:47.608Z,20.90
2017-07-19T05:36:15.906Z,20.90
2017-07-19T05:38:43.409Z,20.80
2017-07-19T05:41:11.671Z,21.00
2017-07-19T05:43:39.971Z,21.10
2017-07-19T05:46:07.475Z,21.00
2017-07-19T05:48:35.746Z,21.20
2017-07-19T05:51:04.029Z,21.20
2017-07-19T05:53:32.297Z,21.40
2017-07-19T05:56:00.599Z,21.40
2017-07-19T05:58:28.098Z,21.40
2017-07-19T06:00:56.367Z,21.50
2017-07-19T06:03:24.676Z,21.50
2017-07-19T06:05:52.968Z,21.60
2017-07-19T06:08:21.227Z,21.70
2017-07-19T06:10:49.535Z,21.80
2017-07-19T06:13:17.816Z,21.80
2017-07-19T06:15:46.092Z,21.80
2017-07-19T06:18:14.396Z,22.00
2017-07-19T06:20:42.653Z,21.90
2017-07-19T06:23:10.953Z,22.10
2017-07-19T06:25:39.223Z,22.10
2017-07-19T06:28:07.516Z,22.10
2017-07-19T06:30:35.773Z,22.30
2017-07-19T06:33:04.037Z,22.40
2017-07-19T06:35:31.572Z,22.30
2017-07-19T06:37:59.090Z,22.30
2017-07-19T06:40:27.365Z,22.40
2017-07-19T06:42:55.690Z,22.70
2017-07-19T06:45:24.048Z,22.60
2017-07-19T06:47:52.312Z,22.80
2017-07-19T06:50:19.867Z,22.70
2017-07-19T06:52:48.154Z,22.80
2017-07-19T06:55:16.436Z,22.80
2017-07-19T06:57:44.729Z,22.90
2017-07-19T07:00:13.033Z,23.00
2017-07-19T07:02:41.338Z,23.20
2017-07-19T07:05:08.837Z,23.20
2017-07-19T07:07:37.142Z,23.20
2017-07-19T07:10:05.444Z,23.30
2017-07-19T07:12:33.699Z,23.50
2017-07-19T07:15:01.967Z,23.60
2017-07-19T07:17:30.267Z,23.60
2017-07-19T07:19:58.542Z,23.80
2017-07-19T07:22:26.831Z,24.00
2017-07-19T07:24:55.099Z,24.00
2017-07-19T07:27:23.383Z,24.00
2017-07-19T07:29:50.882Z,23.90
2017-07-19T07:32:19.329Z,24.30
2017-07-19T07:34:47.596Z,24.50
2017-07-19T07:37:15.871Z,24.60
2017-07-19T07:39:43.390Z,24.60
2017-07-19T07:42:11.646Z,24.80
2017-07-19T07:44:39.936Z,24.90
2017-07-19T07:47:08.203Z,24.90
2017-07-19T07:49:35.708Z,24.90
2017-07-19T07:52:03.994Z,25.20
2017-07-19T07:54:32.253Z,25.50
2017-07-19T07:57:00.553Z,25.60
2017-07-19T07:59:28.819Z,25.80
2017-07-19T08:01:57.097Z,25.80
2017-07-19T08:04:24.612Z,25.80
2017-07-19T08:06:52.873Z,26.10
2017-07-19T08:09:21.166Z,26.10
2017-07-19T08:11:49.433Z,26.20
2017-07-19T08:14:17.682Z,26.40
2017-07-19T08:16:45.994Z,26.60
2017-07-19T08:19:14.251Z,26.60
2017-07-19T08:21:42.533Z,26.60
2017-07-19T08:24:10.829Z,26.70
2017-07-19T08:26:38.320Z,26.70
2017-07-19T08:29:06.586Z,26.80
2017-07-19T08:31:34.859Z,27.00
2017-07-19T08:34:03.149Z,27.10
2017-07-19T08:36:31.407Z,27.20
2017-07-19T08:38:59.688Z,27.30
2017-07-19T08:41:27.957Z,27.40
2017-07-19T08:43:56.245Z,27.50
2017-07-19T08:46:24.535Z,27.50
2017-07-19T08:48:52.811Z,27.60
2017-07-19T08:51:21.099Z,27.70
2017-07-19T08:53:49.362Z,27.90
2017-07-19T08:56:17.615Z,28.00
2017-07-19T08:58:45.900Z,28.20
2017-07-19T09:01:14.177Z,28.20
2017-07-19T09:03:42.489Z,28.30
2017-07-19T09:06:10.753Z,28.40
2017-07-19T09:08:39.030Z,28.40
2017-07-19T09:11:07.349Z,28.50
2017-07-19T09:13:35.626Z,28.50
2017-07-19T09:16:03.893Z,28.60
2017-07-19T09:18:32.197Z,28.90
2017-07-19T09:20:59.712Z,28.80
2017-07-19T09:23:28.014Z,29.00
2017-07-19T09:26:03.667Z,29.00
2017-07-19T09:28:32.546Z,29.20
2017-07-19T09:31:00.840Z,29.20
2017-07-19T09:33:29.103Z,29.40
2017-07-19T09:35:57.409Z,29.40
2017-07-19T09:38:24.896Z,29.40
2017-07-19T09:40:52.398Z,29.40
2017-07-19T09:43:20.701Z,29.60
2017-07-19T09:45:48.959Z,29.80
2017-07-19T09:48:17.240Z,29.80
2017-07-19T09:50:45.533Z,29.80
2017-07-19T09:53:13.789Z,29.90
2017-07-19T09:55:42.051Z,30.00
2017-07-19T09:58:10.340Z,30.00
2017-07-19T10:00:38.597Z,30.10
2017-07-19T10:03:06.898Z,30.10
2017-07-19T10:05:34.392Z,30.10
2017-07-19T10:08:02.652Z,30.30
2017-07-19T10:10:30.948Z,30.40
2017-07-19T10:12:59.208Z,30.50
2017-07-19T10:15:27.505Z,30.60
2017-07-19T10:17:55.768Z,30.70
2017-07-19T10:20:24.019Z,30.80
2017-07-19T10:22:52.326Z,30.80
2017-07-19T10:25:20.588Z,31.10
2017-07-19T10:27:48.883Z,31.10
2017-07-19T10:30:17.244Z,31.30
2017-07-19T10:32:45.499Z,31.40
2017-07-19T10:35:13.755Z,31.40
2017-07-19T10:37:42.075Z,31.50
2017-07-19T10:40:10.326Z,31.50
2017-07-19T10:42:38.579Z,31.40
2017-07-19T10:45:06.890Z,31.60
2017-07-19T10:47:35.208Z,31.50
2017-07-19T10:50:03.484Z,31.50
2017-07-19T10:52:31.750Z,31.60
2017-07-19T10:55:00.033Z,31.60
2017-07-19T10:57:28.300Z,31.60
2017-07-19T10:59:56.596Z,31.70
2017-07-19T11:02:24.856Z,31.70
2017-07-19T11:04:53.123Z,31.90
2017-07-19T11:07:21.404Z,31.90
2017-07-19T11:09:49.663Z,31.90
2017-07-19T11:12:17.951Z,31.90
2017-07-19T11:14:46.244Z,32.00
2017-07-19T11:17:14.510Z,32.00
2017-07-19T11:19:42.823Z,32.00
2017-07-19T11:22:11.089Z,32.00
2017-07-19T11:24:39.340Z,31.90
2017-07-19T11:27:07.623Z,31.90
2017-07-19T11:29:35.117Z,32.00
2017-07-19T11:32:03.393Z,31.90
2017-07-19T11:34:31.664Z,32.00
2017-07-19T11:36:59.968Z,31.90
2017-07-19T11:39:28.233Z,31.80
2017-07-19T11:41:56.501Z,32.00
2017-07-19T11:44:24.786Z,32.00
2017-07-19T11:46:53.055Z,32.00
2017-07-19T11:49:21.332Z,32.00
2017-07-19T11:51:49.649Z,31.80
2017-07-19T11:54:17.899Z,31.80
2017-07-19T11:56:46.184Z,31.80
2017-07-19T11:59:14.459Z,31.60
2017-07-19T12:01:42.748Z,31.50
2017-07-19T12:04:11.975Z,31.40
2017-07-19T12:06:40.231Z,31.70
2017-07-19T12:09:08.524Z,31.70
2017-07-19T12:11:36.779Z,32.00
2017-07-19T12:14:05.995Z,32.10
2017-07-19T12:16:34.291Z,32.20
2017-07-19T12:19:02.599Z,32.30
2017-07-19T12:21:30.873Z,32.40
2017-07-19T12:23:59.171Z,32.50
2017-07-19T12:26:27.463Z,32.70
2017-07-19T12:28:55.715Z,32.70
2017-07-19T12:31:24.558Z,32.80
2017-07-19T12:33:52.832Z,32.80
2017-07-19T12:36:21.097Z,33.00
2017-07-19T12:38:49.377Z,33.10
2017-07-19T12:41:17.664Z,33.10
2017-07-19T12:43:45.968Z,33.10
2017-07-19T12:46:14.240Z,33.00
2017-07-19T12:48:42.530Z,33.00
2017-07-19T12:51:10.788Z,32.90
2017-07-19T12:53:39.048Z,32.70
2017-07-19T12:56:07.351Z,32.60
2017-07-19T12:58:35.628Z,32.50
2017-07-19T13:01:03.887Z,32.40
2017-07-19T13:03:32.187Z,32.30
2017-07-19T13:05:59.693Z,32.30
2017-07-19T13:08:28.923Z,32.10
2017-07-19T13:10:57.192Z,32.10
2017-07-19T13:13:25.495Z,32.10
2017-07-19T13:15:53.760Z,32.00
2017-07-19T13:18:22.015Z,32.00
2017-07-19T13:20:50.318Z,31.80
2017-07-19T13:23:18.583Z,31.60
2017-07-19T13:25:46.868Z,31.60
2017-07-19T13:28:15.135Z,31.40
2017-07-19T13:30:43.440Z,31.40
2017-07-19T13:33:11.703Z,31.20
2017-07-19T13:35:39.971Z,31.10
2017-07-19T13:38:08.262Z,31.00
2017-07-19T13:40:36.532Z,30.50
2017-07-19T13:43:04.856Z,29.90
2017-07-19T13:45:33.115Z,29.40
2017-07-19T13:48:01.379Z,28.90
2017-07-19T13:50:29.663Z,28.70
2017-07-19T13:52:57.925Z,28.30
2017-07-19T13:55:26.206Z,27.80
2017-07-19T13:57:54.483Z,27.40
2017-07-19T14:00:22.788Z,27.00
2017-07-19T14:02:51.047Z,26.30
2017-07-19T14:05:19.316Z,25.80
2017-07-19T14:07:46.841Z,25.70
2017-07-19T14:10:15.100Z,25.20
2017-07-19T14:12:43.410Z,25.00
2017-07-19T14:15:11.671Z,24.90
2017-07-19T14:17:39.930Z,24.60
2017-07-19T14:20:08.209Z,24.40
2017-07-19T14:22:36.477Z,24.30
2017-07-19T14:25:04.758Z,24.20
2017-07-19T14:27:33.956Z,24.10
2017-07-19T14:30:02.235Z,23.90
2017-07-19T14:32:33.615Z,23.80
2017-07-19T14:35:01.899Z,23.60
2017-07-19T14:37:30.155Z,23.60
2017-07-19T14:39:57.680Z,23.60
2017-07-19T14:42:25.949Z,23.50
2017-07-19T14:44:54.231Z,23.60
2017-07-19T14:47:22.497Z,23.70
2017-07-19T14:49:50.823Z,23.70
2017-07-19T14:52:19.087Z,23.80
2017-07-19T14:54:47.331Z,23.90
2017-07-19T14:57:15.640Z,23.90
2017-07-19T14:59:43.131Z,23.90
2017-07-19T15:02:11.384Z,23.90
2017-07-19T15:04:39.676Z,23.90
2017-07-19T15:07:07.931Z,23.80
2017-07-19T15:09:36.197Z,23.80
2017-07-19T15:12:04.487Z,23.80
2017-07-19T15:14:32.759Z,23.70
2017-07-19T15:17:01.043Z,23.60
2017-07-19T15:19:29.308Z,23.70
2017-07-19T15:21:57.601Z,23.50
2017-07-19T15:24:25.897Z,23.70
2017-07-19T15:26:54.167Z,23.70
2017-07-19T15:29:22.454Z,23.60
2017-07-19T15:31:50.740Z,23.60
2017-07-19T15:34:19.017Z,23.60
2017-07-19T15:36:48.284Z,23.50
2017-07-19T15:39:16.560Z,23.40
2017-07-19T15:41:44.829Z,23.20
2017-07-19T15:44:13.133Z,23.20
2017-07-19T15:46:41.408Z,23.10
2017-07-19T15:49:09.707Z,23.20
2017-07-19T15:51:37.968Z,23.20
2017-07-19T15:54:06.240Z,23.20
2017-07-19T15:56:33.780Z,23.30
2017-07-19T15:59:02.071Z,23.30
2017-07-19T16:01:30.360Z,23.30
2017-07-19T16:03:58.633Z,23.30
2017-07-19T16:06:26.960Z,23.50
2017-07-19T16:08:55.248Z,23.50
2017-07-19T16:11:23.525Z,23.50
2017-07-19T16:13:51.820Z,23.50
2017-07-19T16:16:20.092Z,23.60
2017-07-19T16:18:48.373Z,23.50
2017-07-19T16:21:16.679Z,23.70
2017-07-19T16:23:44.963Z,23.80
2017-07-19T16:26:13.275Z,23.90
2017-07-19T16:28:41.560Z,24.00
2017-07-19T16:31:09.837Z,24.00
2017-07-19T16:33:38.119Z,24.10
2017-07-19T16:36:06.386Z,24.20
2017-07-19T16:38:34.703Z,24.10
2017-07-19T16:41:02.973Z,24.10
2017-07-19T16:43:31.245Z,24.20
2017-07-19T16:45:59.555Z,24.20
2017-07-19T16:48:27.820Z,24.10
2017-07-19T16:50:56.113Z,24.10
2017-07-19T16:53:24.397Z,24.10
2017-07-19T16:55:52.709Z,24.10
2017-07-19T16:58:20.976Z,24.10
2017-07-19T17:00:48.480Z,24.00
2017-07-19T17:03:16.814Z,24.10
2017-07-19T17:05:45.087Z,24.10
2017-07-19T17:08:13.385Z,24.10
2017-07-19T17:10:40.881Z,24.10
2017-07-19T17:13:09.145Z,24.30
2017-07-19T17:15:37.439Z,24.40
2017-07-19T17:18:05.706Z,24.70
2017-07-19T17:20:33.993Z,24.70
2017-07-19T17:23:02.247Z,24.80
2017-07-19T17:25:30.549Z,24.90
2017-07-19T17:27:58.821Z,24.90
2017-07-19T17:30:27.126Z,24.90
2017-07-19T17:32:55.401Z,24.90
2017-07-19T17:35:23.691Z,24.80
2017-07-19T17:37:51.991Z,24.80
2017-07-19T17:40:20.261Z,24.80
2017-07-19T17:42:48.541Z,24.70
2017-07-19T17:45:16.863Z,24.70
2017-07-19T17:47:45.136Z,24.60
2017-07-19T17:50:13.411Z,24.60
2017-07-19T17:52:41.707Z,24.60
2017-07-19T17:55:09.992Z,24.70
2017-07-19T17:57:38.290Z,24.70
2017-07-19T18:00:06.552Z,24.50
2017-07-19T18:02:34.851Z,24.50
2017-07-19T18:05:03.125Z,24.40
2017-07-19T18:07:31.432Z,24.50
2017-07-19T18:09:59.703Z,24.50
2017-07-19T18:12:28.015Z,24.50
2017-07-19T18:14:56.284Z,24.50
2017-07-19T18:17:24.565Z,24.50
2017-07-19T18:19:52.849Z,24.50
2017-07-19T18:22:21.123Z,24.40
2017-07-19T18:24:49.431Z,24.40
2017-07-19T18:27:17.691Z,24.40
2017-07-19T18:29:45.997Z,24.30
2017-07-19T18:32:14.299Z,24.30
2017-07-19T18:34:42.572Z,24.30
2017-07-19T18:37:10.888Z,24.30
2017-07-19T18:39:39.175Z,24.20
2017-07-19T18:42:07.474Z,24.20
2017-07-19T18:44:35.736Z,24.20
2017-07-19T18:47:04.036Z,24.10
2017-07-19T18:49:32.300Z,24.20
2017-07-19T18:52:00.608Z,24.20
2017-07-19T18:54:29.827Z,24.10
2017-07-19T18:56:58.127Z,24.10
2017-07-19T18:59:26.399Z,24.00
2017-07-19T19:01:54.687Z,24.00
2017-07-19T19:04:22.963Z,24.00
2017-07-19T19:06:51.254Z,23.90
2017-07-19T19:09:19.552Z,24.00
2017-07-19T19:11:47.832Z,23.90
2017-07-19T19:14:16.135Z,23.90
2017-07-19T19:16:44.391Z,23.80
2017-07-19T19:19:12.655Z,23.60
2017-07-19T19:21:40.956Z,23.60
2017-07-19T19:24:09.218Z,23.60
2017-07-19T19:26:36.724Z,23.50
2017-07-19T19:29:05.019Z,23.50
2017-07-19T19:31:33.291Z,23.60
2017-07-19T19:34:00.827Z,23.50
2017-07-19T19:36:29.103Z,23.40
2017-07-19T19:38:57.391Z,23.30
2017-07-19T19:41:25.665Z,23.30
2017-07-19T19:43:53.954Z,23.20
2017-07-19T19:46:22.211Z,23.30
2017-07-19T19:48:50.497Z,23.10
2017-07-19T19:51:18.764Z,23.00
2017-07-19T19:53:47.073Z,23.00
2017-07-19T19:56:15.347Z,23.00
2017-07-19T19:58:43.643Z,23.00
2017-07-19T20:01:11.928Z,23.00
2017-07-19T20:03:40.207Z,23.00
2017-07-19T20:06:08.505Z,23.00
2017-07-19T20:08:36.776Z,22.90
2017-07-19T20:11:05.067Z,22.90
2017-07-19T20:13:33.356Z,22.90
2017-07-19T20:16:01.691Z,22.80
2017-07-19T20:18:29.943Z,22.80
2017-07-19T20:20:58.216Z,22.80
2017-07-19T20:23:26.500Z,22.70
2017-07-19T20:25:54.763Z,22.70
2017-07-19T20:28:23.053Z,22.70
2017-07-19T20:30:51.324Z,22.70
2017-07-19T20:33:19.592Z,22.70
2017-07-19T20:35:47.895Z,22.70
2017-07-19T20:38:16.165Z,22.70
2017-07-19T20:40:44.428Z,22.60
2017-07-19T20:43:12.729Z,22.60
2017-07-19T20:45:40.989Z,22.70
2017-07-19T20:48:09.262Z,22.60
2017-07-19T20:50:37.571Z,22.60
2017-07-19T20:53:05.847Z,22.50
2017-07-19T20:55:34.110Z,22.60
2017-07-19T20:58:02.407Z,22.50
2017-07-19T21:00:30.668Z,22.40
2017-07-19T21:02:58.936Z,22.40
2017-07-19T21:05:27.235Z,22.40
2017-07-19T21:07:55.531Z,22.40
2017-07-19T21:10:23.859Z,22.40
2017-07-19T21:12:52.175Z,22.30
2017-07-19T21:15:20.496Z,22.30
2017-07-19T21:17:48.805Z,22.40
2017-07-19T21:20:17.168Z,22.30
2017-07-19T21:22:45.466Z,22.30
2017-07-19T21:25:13.801Z,22.40
2017-07-19T21:27:42.105Z,22.30
2017-07-19T21:30:10.411Z,22.30
2017-07-19T21:32:38.769Z,22.50
2017-07-19T21:35:07.073Z,22.40
2017-07-19T21:37:36.394Z,22.20
2017-07-19T21:40:04.693Z,22.20
2017-07-19T21:42:33.004Z,22.20
2017-07-19T21:45:01.326Z,22.30
2017-07-19T21:47:29.648Z,22.30
2017-07-19T21:49:57.985Z,22.20
2017-07-19T21:52:26.301Z,22.30
2017-07-19T21:54:54.604Z,22.20
2017-07-19T21:57:22.941Z,22.30
2017-07-19T21:59:51.242Z,22.20
2017-07-19T22:02:19.580Z,22.30
2017-07-19T22:04:47.125Z,22.20
2017-07-19T22:07:15.427Z,22.10
2017-07-19T22:09:43.753Z,22.20
2017-07-19T22:12:12.077Z,22.10
2017-07-19T22:14:40.377Z,22.00
2017-07-19T22:17:08.703Z,22.30
2017-07-19T22:19:37.040Z,22.20
2017-07-19T22:22:05.359Z,22.20
2017-07-19T22:24:34.594Z,22.10
2017-07-19T22:27:02.929Z,22.10
2017-07-19T22:29:31.247Z,22.10
2017-07-19T22:31:59.577Z,22.10
2017-07-19T22:34:27.915Z,22.20
2017-07-19T22:36:56.218Z,22.30
2017-07-19T22:39:24.523Z,22.30
2017-07-19T22:41:52.861Z,22.30
2017-07-19T22:44:21.174Z,22.40
2017-07-19T22:46:49.544Z,22.40
2017-07-19T22:49:17.856Z,22.30
2017-07-19T22:51:46.184Z,22.20
2017-07-19T22:54:14.523Z,22.20
2017-07-19T22:56:42.856Z,22.30
2017-07-19T22:59:11.155Z,22.20
2017-07-19T23:01:39.488Z,22.20
2017-07-19T23:04:07.023Z,22.20
2017-07-19T23:06:35.365Z,22.20
2017-07-19T23:09:02.909Z,22.10
2017-07-19T23:11:31.205Z,22.20
2017-07-19T23:13:59.551Z,22.10
2017-07-19T23:16:27.868Z,22.20
2017-07-19T23:18:56.202Z,22.20
2017-07-19T23:21:24.542Z,22.10
2017-07-19T23:23:52.848Z,22.20
2017-07-19T23:26:21.151Z,22.50
2017-07-19T23:28:49.482Z,22.40
2017-07-19T23:31:17.785Z,22.20
2017-07-19T23:33:46.126Z,22.30
2017-07-19T23:36:14.441Z,22.30
2017-07-19T23:38:42.766Z,22.30
2017-07-19T23:41:11.056Z,22.20
2017-07-19T23:43:39.406Z,22.20
2017-07-19T23:46:07.710Z,22.20
2017-07-19T23:48:36.021Z,22.10
2017-07-19T23:51:04.346Z,22.30
2017-07-19T23:53:32.645Z,22.30
2017-07-19T23:56:00.977Z,22.30
2017-07-19T23:58:28.511Z,22.30
